createdAt,value
2022-11-28T00:00:59.757Z,7.42
2022-11-28T00:01:59.788Z,7.37
2022-11-28T00:02:59.847Z,7.37
2022-11-28T00:04:07.963Z,7.35
2022-11-28T00:04:59.771Z,7.37
2022-11-28T00:06:07.937Z,7.34
2022-11-28T00:07:07.746Z,7.35
2022-11-28T00:08:07.924Z,7.35
2022-11-28T00:08:59.699Z,7.35
2022-11-28T00:09:59.694Z,7.32
2022-11-28T00:10:59.634Z,7.32
2022-11-28T00:11:59.632Z,7.32
2022-11-28T00:12:59.645Z,7.32
2022-11-28T00:13:59.594Z,7.34
2022-11-28T00:14:59.587Z,7.32
2022-11-28T00:15:59.649Z,7.30
2022-11-28T00:16:59.573Z,7.27
2022-11-28T00:17:59.547Z,7.25
2022-11-28T00:18:59.547Z,7.23
2022-11-28T00:19:59.533Z,7.20
2022-11-28T00:20:59.537Z,7.16
2022-11-28T00:21:59.505Z,7.16
2022-11-28T00:22:59.513Z,7.15
2022-11-28T00:23:59.489Z,7.16
2022-11-28T00:24:59.465Z,7.13
2022-11-28T00:25:59.486Z,7.10
2022-11-28T00:26:59.445Z,7.10
2022-11-28T00:27:59.434Z,7.07
2022-11-28T00:28:59.417Z,7.07
2022-11-28T00:29:59.431Z,7.06
2022-11-28T00:31:03.280Z,7.05
2022-11-28T00:31:59.423Z,7.02
2022-11-28T00:32:59.506Z,6.99
2022-11-28T00:33:59.387Z,6.98
2022-11-28T00:34:59.384Z,6.94
2022-11-28T00:35:59.355Z,6.94
2022-11-28T00:36:59.352Z,6.92
2022-11-28T00:37:59.344Z,6.89
2022-11-28T00:38:59.336Z,6.89
2022-11-28T00:39:59.328Z,6.88
2022-11-28T00:40:59.336Z,6.88
2022-11-28T00:41:59.296Z,6.85
2022-11-28T00:42:59.256Z,6.84
2022-11-28T00:43:59.267Z,6.81
2022-11-28T00:44:59.237Z,6.81
2022-11-28T00:45:59.331Z,6.79
2022-11-28T00:46:59.239Z,6.79
2022-11-28T00:47:59.224Z,6.77
2022-11-28T00:48:59.200Z,6.76
2022-11-28T00:49:59.190Z,6.73
2022-11-28T00:50:59.206Z,6.73
2022-11-28T00:51:59.204Z,6.71
2022-11-28T00:52:59.153Z,6.71
2022-11-28T00:53:59.156Z,6.73
2022-11-28T00:54:59.128Z,6.74
2022-11-28T00:55:59.128Z,6.71
2022-11-28T00:56:59.101Z,6.71
2022-11-28T00:57:59.100Z,6.71
2022-11-28T00:58:59.087Z,6.73
2022-11-28T00:59:59.065Z,6.73
2022-11-28T01:00:59.119Z,6.74
2022-11-28T01:01:59.103Z,6.74
2022-11-28T01:02:59.046Z,6.73
2022-11-28T01:03:59.028Z,6.73
2022-11-28T01:04:59.027Z,6.73
2022-11-28T01:05:58.989Z,6.71
2022-11-28T01:06:59.012Z,6.71
2022-11-28T01:07:59.048Z,6.70
2022-11-28T01:08:58.981Z,6.69
2022-11-28T01:09:58.958Z,6.70
2022-11-28T01:10:58.955Z,6.69
2022-11-28T01:11:58.948Z,6.70
2022-11-28T01:12:58.928Z,6.69
2022-11-28T01:13:58.898Z,6.69
2022-11-28T01:14:58.918Z,6.71
2022-11-28T01:15:59.064Z,6.70
2022-11-28T01:16:58.875Z,6.67
2022-11-28T01:17:58.860Z,6.66
2022-11-28T01:18:58.860Z,6.66
2022-11-28T01:19:58.829Z,6.64
2022-11-28T01:20:58.830Z,6.62
2022-11-28T01:21:58.819Z,6.64
2022-11-28T01:22:58.799Z,6.66
2022-11-28T01:23:58.798Z,6.67
2022-11-28T01:24:58.794Z,6.66
2022-11-28T01:25:58.809Z,6.66
2022-11-28T01:26:58.759Z,6.67
2022-11-28T01:27:58.758Z,6.66
2022-11-28T01:28:58.792Z,6.69
2022-11-28T01:29:58.722Z,6.67
2022-11-28T01:30:58.728Z,6.66
2022-11-28T01:31:58.780Z,6.66
2022-11-28T01:32:58.722Z,6.66
2022-11-28T01:33:58.798Z,6.66
2022-11-28T01:34:58.663Z,6.66
2022-11-28T01:35:58.672Z,6.64
2022-11-28T01:36:58.631Z,6.62
2022-11-28T01:37:58.658Z,6.62
2022-11-28T01:38:58.613Z,6.62
2022-11-28T01:39:58.615Z,6.61
2022-11-28T01:40:58.756Z,6.59
2022-11-28T01:41:58.591Z,6.56
2022-11-28T01:42:58.603Z,6.56
2022-11-28T01:43:58.558Z,6.55
2022-11-28T01:44:58.551Z,6.54
2022-11-28T01:45:58.540Z,6.54
2022-11-28T01:46:58.613Z,6.52
2022-11-28T01:47:58.522Z,6.54
2022-11-28T01:48:58.520Z,6.55
2022-11-28T01:49:58.503Z,6.52
2022-11-28T01:50:58.494Z,6.51
2022-11-28T01:51:58.461Z,6.52
2022-11-28T01:52:58.482Z,6.51
2022-11-28T01:53:58.482Z,6.51
2022-11-28T01:54:58.432Z,6.54
2022-11-28T01:55:58.423Z,6.52
2022-11-28T01:56:58.662Z,6.49
2022-11-28T01:57:58.392Z,6.48
2022-11-28T01:58:58.371Z,6.48
2022-11-28T01:59:58.411Z,6.46
2022-11-28T02:00:58.402Z,6.44
2022-11-28T02:01:58.373Z,6.44
2022-11-28T02:02:58.353Z,6.41
2022-11-28T02:03:58.343Z,6.43
2022-11-28T02:04:58.304Z,6.43
2022-11-28T02:05:58.292Z,6.40
2022-11-28T02:06:58.295Z,6.41
2022-11-28T02:07:58.356Z,6.40
2022-11-28T02:08:58.253Z,6.41
2022-11-28T02:10:07.333Z,6.38
2022-11-28T02:11:05.482Z,6.38
2022-11-28T02:12:09.701Z,6.38
2022-11-28T02:13:06.506Z,6.36
2022-11-28T02:14:05.437Z,6.34
2022-11-28T02:15:05.465Z,6.34
2022-11-28T02:16:06.517Z,6.36
2022-11-28T02:16:58.225Z,6.34
2022-11-28T02:17:58.210Z,6.36
2022-11-28T02:18:58.136Z,6.37
2022-11-28T02:19:58.134Z,6.38
2022-11-28T02:20:58.134Z,6.38
2022-11-28T02:21:58.115Z,6.37
2022-11-28T02:22:58.117Z,6.40
2022-11-28T02:23:58.128Z,6.40
2022-11-28T02:24:58.115Z,6.38
2022-11-28T02:25:58.074Z,6.37
2022-11-28T02:27:01.857Z,6.38
2022-11-28T02:27:58.063Z,6.37
2022-11-28T02:28:58.303Z,6.37
2022-11-28T02:29:58.012Z,6.37
2022-11-28T02:30:58.053Z,6.40
2022-11-28T02:31:58.008Z,6.43
2022-11-28T02:32:58.716Z,6.46
2022-11-28T02:33:57.976Z,6.44
2022-11-28T02:34:58.020Z,6.46
2022-11-28T02:35:57.978Z,6.48
2022-11-28T02:36:57.948Z,6.48
2022-11-28T02:37:57.916Z,6.51
2022-11-28T02:38:57.948Z,6.49
2022-11-28T02:39:57.905Z,6.52
2022-11-28T02:40:57.896Z,6.55
2022-11-28T02:41:57.889Z,6.51
2022-11-28T02:42:57.885Z,6.49
2022-11-28T02:44:02.661Z,6.48
2022-11-28T02:44:58.872Z,6.48
2022-11-28T02:45:57.862Z,6.51
2022-11-28T02:46:57.892Z,6.51
2022-11-28T02:47:57.819Z,6.52
2022-11-28T02:48:57.828Z,6.51
2022-11-28T02:49:57.787Z,6.49
2022-11-28T02:50:57.791Z,6.48
2022-11-28T02:51:57.757Z,6.49
2022-11-28T02:52:57.758Z,6.52
2022-11-28T02:53:57.765Z,6.49
2022-11-28T02:54:57.735Z,6.49
2022-11-28T02:55:58.447Z,6.49
2022-11-28T02:56:57.706Z,6.51
2022-11-28T02:57:57.697Z,6.48
2022-11-28T02:58:57.697Z,6.49
2022-11-28T02:59:57.938Z,6.49
2022-11-28T03:00:57.785Z,6.51
2022-11-28T03:01:57.725Z,6.55
2022-11-28T03:02:57.668Z,6.54
2022-11-28T03:03:57.622Z,6.55
2022-11-28T03:04:57.630Z,6.52
2022-11-28T03:05:57.870Z,6.55
2022-11-28T03:06:57.599Z,6.54
2022-11-28T03:07:57.593Z,6.54
2022-11-28T03:08:57.560Z,6.54
2022-11-28T03:09:57.578Z,6.54
2022-11-28T03:10:57.548Z,6.55
2022-11-28T03:11:57.533Z,6.55
2022-11-28T03:12:58.498Z,6.55
2022-11-28T03:13:57.557Z,6.55
2022-11-28T03:14:57.542Z,6.54
2022-11-28T03:15:57.524Z,6.55
2022-11-28T03:16:57.488Z,6.55
2022-11-28T03:17:57.459Z,6.54
2022-11-28T03:18:57.679Z,6.52
2022-11-28T03:19:57.488Z,6.52
2022-11-28T03:20:57.430Z,6.54
2022-11-28T03:21:57.420Z,6.54
2022-11-28T03:22:57.389Z,6.54
2022-11-28T03:23:57.397Z,6.58
2022-11-28T03:24:57.409Z,6.58
2022-11-28T03:25:57.378Z,6.58
2022-11-28T03:26:57.377Z,6.58
2022-11-28T03:27:57.331Z,6.59
2022-11-28T03:28:57.339Z,6.61
2022-11-28T03:30:02.439Z,6.58
2022-11-28T03:30:57.339Z,6.58
2022-11-28T03:31:57.389Z,6.59
2022-11-28T03:32:57.289Z,6.61
2022-11-28T03:33:57.291Z,6.59
2022-11-28T03:34:57.261Z,6.59
2022-11-28T03:35:57.261Z,6.62
2022-11-28T03:36:57.231Z,6.64
2022-11-28T03:37:57.250Z,6.66
2022-11-28T03:39:01.104Z,6.62
2022-11-28T03:39:57.192Z,6.64
2022-11-28T03:40:57.238Z,6.62
2022-11-28T03:41:57.182Z,6.64
2022-11-28T03:42:57.175Z,6.61
2022-11-28T03:43:57.151Z,6.64
2022-11-28T03:44:57.161Z,6.59
2022-11-28T03:45:57.151Z,6.61
2022-11-28T03:46:57.205Z,6.58
2022-11-28T03:47:57.118Z,6.58
2022-11-28T03:48:57.111Z,6.58
2022-11-28T03:49:57.084Z,6.56
2022-11-28T03:50:57.100Z,6.56
2022-11-28T03:51:57.088Z,6.56
2022-11-28T03:52:57.042Z,6.56
2022-11-28T03:53:57.048Z,6.56
2022-11-28T03:54:57.042Z,6.55
2022-11-28T03:55:57.047Z,6.55
2022-11-28T03:56:57.047Z,6.55
2022-11-28T03:57:56.991Z,6.55
2022-11-28T03:58:56.992Z,6.56
2022-11-28T03:59:56.991Z,6.58
2022-11-28T04:00:57.004Z,6.58
2022-11-28T04:01:56.962Z,6.59
2022-11-28T04:02:57.004Z,6.56
2022-11-28T04:03:56.910Z,6.56
2022-11-28T04:04:57.152Z,6.58
2022-11-28T04:05:56.896Z,6.58
2022-11-28T04:06:56.885Z,6.58
2022-11-28T04:08:00.943Z,6.59
2022-11-28T04:08:56.865Z,6.62
2022-11-28T04:09:56.862Z,6.62
2022-11-28T04:10:56.845Z,6.61
2022-11-28T04:11:56.842Z,6.64
2022-11-28T04:12:56.833Z,6.62
2022-11-28T04:13:56.812Z,6.66
2022-11-28T04:14:56.792Z,6.66
2022-11-28T04:15:56.843Z,6.66
2022-11-28T04:16:56.794Z,6.66
2022-11-28T04:18:05.034Z,6.64
2022-11-28T04:19:05.019Z,6.62
2022-11-28T04:20:04.017Z,6.62
2022-11-28T04:20:56.779Z,6.62
2022-11-28T04:21:56.766Z,6.66
2022-11-28T04:22:56.737Z,6.66
2022-11-28T04:23:56.705Z,6.66
2022-11-28T04:24:56.688Z,6.67
2022-11-28T04:25:56.667Z,6.64
2022-11-28T04:26:56.672Z,6.62
2022-11-28T04:27:56.908Z,6.64
2022-11-28T04:28:56.638Z,6.64
2022-11-28T04:29:56.628Z,6.64
2022-11-28T04:30:56.621Z,6.64
2022-11-28T04:31:56.632Z,6.62
2022-11-28T04:32:56.578Z,6.67
2022-11-28T04:33:56.571Z,6.67
2022-11-28T04:34:56.590Z,6.66
2022-11-28T04:35:56.539Z,6.66
2022-11-28T04:36:56.540Z,6.64
2022-11-28T04:37:56.530Z,6.66
2022-11-28T04:38:56.759Z,6.66
2022-11-28T04:40:00.362Z,6.67
2022-11-28T04:40:56.499Z,6.67
2022-11-28T04:41:56.528Z,6.66
2022-11-28T04:42:56.481Z,6.69
2022-11-28T04:43:56.449Z,6.69
2022-11-28T04:44:56.468Z,6.69
2022-11-28T04:45:56.490Z,6.69
2022-11-28T04:46:56.426Z,6.67
2022-11-28T04:47:56.424Z,6.66
2022-11-28T04:48:56.415Z,6.64
2022-11-28T04:49:56.760Z,6.64
2022-11-28T04:50:56.379Z,6.64
2022-11-28T04:51:56.364Z,6.64
2022-11-28T04:52:56.352Z,6.62
2022-11-28T04:53:56.328Z,6.66
2022-11-28T04:54:56.358Z,6.69
2022-11-28T04:55:56.320Z,6.69
2022-11-28T04:56:56.310Z,6.70
2022-11-28T04:57:57.645Z,6.70
2022-11-28T04:58:56.298Z,6.67
2022-11-28T04:59:56.272Z,6.66
2022-11-28T05:00:56.283Z,6.66
2022-11-28T05:01:56.297Z,6.64
2022-11-28T05:02:56.267Z,6.67
2022-11-28T05:03:56.220Z,6.66
2022-11-28T05:04:56.238Z,6.69
2022-11-28T05:05:56.201Z,6.67
2022-11-28T05:06:56.190Z,6.71
2022-11-28T05:07:56.231Z,6.71
2022-11-28T05:08:56.171Z,6.70
2022-11-28T05:09:56.171Z,6.70
2022-11-28T05:10:56.141Z,6.69
2022-11-28T05:11:56.121Z,6.71
2022-11-28T05:12:56.122Z,6.71
2022-11-28T05:13:56.140Z,6.74
2022-11-28T05:14:56.110Z,6.71
2022-11-28T05:15:56.118Z,6.70
2022-11-28T05:16:56.105Z,6.71
2022-11-28T05:17:56.055Z,6.71
2022-11-28T05:18:56.053Z,6.73
2022-11-28T05:19:56.066Z,6.71
2022-11-28T05:20:56.032Z,6.71
2022-11-28T05:21:56.016Z,6.71
2022-11-28T05:22:56.018Z,6.71
2022-11-28T05:23:55.999Z,6.76
2022-11-28T05:24:55.975Z,6.74
2022-11-28T05:25:55.991Z,6.76
2022-11-28T05:26:55.965Z,6.77
2022-11-28T05:27:55.950Z,6.74
2022-11-28T05:28:55.932Z,6.73
2022-11-28T05:29:55.932Z,6.74
2022-11-28T05:30:56.193Z,6.76
2022-11-28T05:31:55.969Z,6.74
2022-11-28T05:32:55.888Z,6.77
2022-11-28T05:33:55.870Z,6.77
2022-11-28T05:34:55.869Z,6.76
2022-11-28T05:35:55.887Z,6.76
2022-11-28T05:36:55.842Z,6.79
2022-11-28T05:37:55.823Z,6.79
2022-11-28T05:38:55.803Z,6.77
2022-11-28T05:39:55.811Z,6.76
2022-11-28T05:40:55.813Z,6.77
2022-11-28T05:41:56.069Z,6.76
2022-11-28T05:42:55.762Z,6.76
2022-11-28T05:43:55.764Z,6.80
2022-11-28T05:44:55.763Z,6.79
2022-11-28T05:45:55.809Z,6.79
2022-11-28T05:46:55.713Z,6.81
2022-11-28T05:47:55.704Z,6.79
2022-11-28T05:48:55.704Z,6.79
2022-11-28T05:49:55.692Z,6.79
2022-11-28T05:50:55.713Z,6.84
2022-11-28T05:51:55.653Z,6.84
2022-11-28T05:52:55.653Z,6.85
2022-11-28T05:53:55.626Z,6.85
2022-11-28T05:54:55.662Z,6.85
2022-11-28T05:55:55.604Z,6.87
2022-11-28T05:56:55.614Z,6.87
2022-11-28T05:57:55.612Z,6.81
2022-11-28T05:58:55.574Z,6.81
2022-11-28T05:59:55.584Z,6.84
2022-11-28T06:00:55.564Z,6.87
2022-11-28T06:01:55.606Z,6.88
2022-11-28T06:03:01.013Z,6.87
2022-11-28T06:03:56.564Z,6.88
2022-11-28T06:04:55.553Z,6.87
2022-11-28T06:05:55.493Z,6.87
2022-11-28T06:06:55.507Z,6.84
2022-11-28T06:07:55.540Z,6.85
2022-11-28T06:08:55.473Z,6.88
2022-11-28T06:09:55.467Z,6.89
2022-11-28T06:10:55.466Z,6.88
2022-11-28T06:11:55.425Z,6.88
2022-11-28T06:12:55.416Z,6.91
2022-11-28T06:13:55.426Z,6.91
2022-11-28T06:14:55.395Z,6.89
2022-11-28T06:15:55.417Z,6.91
2022-11-28T06:16:55.401Z,6.88
2022-11-28T06:17:55.368Z,6.88
2022-11-28T06:18:55.354Z,6.91
2022-11-28T06:19:55.336Z,6.91
2022-11-28T06:20:55.328Z,6.91
2022-11-28T06:21:55.336Z,6.94
2022-11-28T06:22:55.286Z,6.95
2022-11-28T06:23:55.307Z,6.94
2022-11-28T06:25:03.534Z,6.89
2022-11-28T06:26:02.541Z,6.91
2022-11-28T06:26:55.305Z,6.91
2022-11-28T06:27:55.251Z,6.89
2022-11-28T06:28:55.237Z,6.88
2022-11-28T06:29:55.243Z,6.85
2022-11-28T06:30:55.233Z,6.84
2022-11-28T06:31:55.274Z,6.84
2022-11-28T06:32:55.193Z,6.79
2022-11-28T06:33:55.176Z,6.85
2022-11-28T06:34:55.164Z,6.80
2022-11-28T06:35:55.162Z,6.77
2022-11-28T06:36:55.155Z,6.77
2022-11-28T06:37:55.132Z,6.77
2022-11-28T06:38:55.126Z,6.76
2022-11-28T06:39:55.113Z,6.76
2022-11-28T06:40:55.092Z,6.73
2022-11-28T06:41:55.086Z,6.73
2022-11-28T06:42:55.088Z,6.73
2022-11-28T06:43:55.058Z,6.70
2022-11-28T06:44:55.039Z,6.70
2022-11-28T06:45:55.120Z,6.66
2022-11-28T06:46:55.036Z,6.64
2022-11-28T06:47:55.013Z,6.64
2022-11-28T06:48:54.997Z,6.64
2022-11-28T06:49:54.988Z,6.61
2022-11-28T06:50:54.966Z,6.61
2022-11-28T06:51:54.987Z,6.61
2022-11-28T06:52:54.955Z,6.59
2022-11-28T06:53:54.958Z,6.58
2022-11-28T06:54:54.929Z,6.56
2022-11-28T06:55:54.924Z,6.54
2022-11-28T06:56:54.935Z,6.54
2022-11-28T06:57:54.895Z,6.55
2022-11-28T06:58:54.878Z,6.55
2022-11-28T06:59:54.924Z,6.54
2022-11-28T07:00:54.882Z,6.54
2022-11-28T07:01:54.915Z,6.54
2022-11-28T07:02:54.858Z,6.52
2022-11-28T07:03:54.823Z,6.51
2022-11-28T07:04:54.818Z,6.51
2022-11-28T07:05:54.807Z,6.52
2022-11-28T07:06:54.854Z,6.51
2022-11-28T07:07:54.869Z,6.51
2022-11-28T07:08:54.765Z,6.52
2022-11-28T07:09:54.788Z,6.51
2022-11-28T07:10:54.749Z,6.54
2022-11-28T07:11:54.729Z,6.52
2022-11-28T07:12:54.719Z,6.51
2022-11-28T07:13:54.748Z,6.48
2022-11-28T07:14:54.712Z,6.49
2022-11-28T07:15:54.685Z,6.52
2022-11-28T07:16:54.788Z,6.55
2022-11-28T07:17:54.683Z,6.54
2022-11-28T07:18:54.646Z,6.54
2022-11-28T07:19:55.299Z,6.51
2022-11-28T07:20:54.627Z,6.48
2022-11-28T07:21:54.631Z,6.48
2022-11-28T07:22:54.596Z,6.48
2022-11-28T07:23:54.596Z,6.48
2022-11-28T07:24:54.575Z,6.51
2022-11-28T07:25:54.556Z,6.49
2022-11-28T07:26:54.577Z,6.48
2022-11-28T07:27:54.549Z,6.46
2022-11-28T07:28:54.567Z,6.49
2022-11-28T07:29:54.516Z,6.48
2022-11-28T07:30:54.528Z,6.46
2022-11-28T07:31:54.577Z,6.51
2022-11-28T07:32:54.499Z,6.55
2022-11-28T07:33:54.492Z,6.55
2022-11-28T07:34:54.482Z,6.55
2022-11-28T07:35:54.446Z,6.54
2022-11-28T07:36:54.495Z,6.52
2022-11-28T07:37:54.459Z,6.49
2022-11-28T07:38:54.429Z,6.48
2022-11-28T07:39:54.401Z,6.46
2022-11-28T07:40:54.411Z,6.48
2022-11-28T07:41:54.397Z,6.49
2022-11-28T07:42:54.376Z,6.54
2022-11-28T07:43:54.358Z,6.54
2022-11-28T07:44:54.355Z,6.52
2022-11-28T07:46:00.843Z,6.51
2022-11-28T07:46:55.694Z,6.51
2022-11-28T07:47:54.324Z,6.49
2022-11-28T07:48:54.312Z,6.52
2022-11-28T07:49:54.284Z,6.56
2022-11-28T07:50:54.278Z,6.59
2022-11-28T07:51:54.297Z,6.61
2022-11-28T07:52:54.256Z,6.55
2022-11-28T07:53:54.249Z,6.56
2022-11-28T07:54:54.255Z,6.58
2022-11-28T07:55:54.218Z,6.61
2022-11-28T07:57:12.289Z,6.62
2022-11-28T07:57:55.228Z,6.61
2022-11-28T07:58:55.430Z,6.59
2022-11-28T07:59:54.179Z,6.61
2022-11-28T08:00:54.168Z,6.64
2022-11-28T08:01:54.338Z,6.64
2022-11-28T08:02:54.133Z,6.64
2022-11-28T08:03:54.217Z,6.59
2022-11-28T08:04:55.460Z,6.58
2022-11-28T08:05:54.100Z,6.61
2022-11-28T08:06:54.126Z,6.66
2022-11-28T08:07:54.133Z,6.66
2022-11-28T08:08:54.080Z,6.64
2022-11-28T08:09:55.239Z,6.59
2022-11-28T08:10:54.051Z,6.58
2022-11-28T08:11:54.032Z,6.58
2022-11-28T08:12:54.009Z,6.58
2022-11-28T08:13:57.828Z,6.59
2022-11-28T08:14:54.014Z,6.61
2022-11-28T08:15:53.987Z,6.62
2022-11-28T08:16:54.042Z,6.66
2022-11-28T08:17:53.978Z,6.70
2022-11-28T08:18:53.952Z,6.73
2022-11-28T08:19:53.950Z,6.77
2022-11-28T08:20:53.980Z,6.80
2022-11-28T08:21:54.244Z,6.77
2022-11-28T08:22:53.902Z,6.76
2022-11-28T08:23:53.896Z,6.77
2022-11-28T08:24:53.891Z,6.76
2022-11-28T08:25:53.862Z,6.77
2022-11-28T08:26:53.979Z,6.77
2022-11-28T08:27:53.871Z,6.80
2022-11-28T08:28:53.821Z,6.80
2022-11-28T08:29:54.265Z,6.81
2022-11-28T08:30:54.776Z,6.81
2022-11-28T08:31:53.802Z,6.84
2022-11-28T08:32:53.771Z,6.80
2022-11-28T08:33:53.801Z,6.80
2022-11-28T08:34:53.770Z,6.81
2022-11-28T08:35:53.750Z,6.81
2022-11-28T08:36:53.745Z,6.80
2022-11-28T08:37:56.555Z,6.80
2022-11-28T08:39:09.413Z,6.80
2022-11-28T08:39:54.753Z,6.80
2022-11-28T08:40:53.681Z,6.84
2022-11-28T08:41:53.673Z,6.84
2022-11-28T08:42:53.673Z,6.84
2022-11-28T08:43:53.653Z,6.85
2022-11-28T08:44:53.653Z,6.88
2022-11-28T08:45:53.700Z,6.88
2022-11-28T08:46:53.667Z,6.87
2022-11-28T08:47:53.642Z,6.89
2022-11-28T08:48:53.605Z,6.92
2022-11-28T08:49:53.585Z,6.91
2022-11-28T08:50:53.590Z,6.94
2022-11-28T08:51:53.556Z,6.92
2022-11-28T08:52:53.563Z,6.97
2022-11-28T08:53:59.040Z,6.97
2022-11-28T08:54:54.536Z,6.97
2022-11-28T08:55:53.544Z,7.02
2022-11-28T08:56:53.530Z,7.06
2022-11-28T08:57:53.512Z,7.09
2022-11-28T08:58:53.523Z,7.16
2022-11-28T08:59:53.518Z,7.16
2022-11-28T09:00:53.484Z,7.15
2022-11-28T09:01:53.540Z,7.12
2022-11-28T09:02:53.460Z,7.15
2022-11-28T09:03:53.476Z,7.21
2022-11-28T09:04:53.415Z,7.25
2022-11-28T09:05:53.405Z,7.30
2022-11-28T09:06:53.430Z,7.31
2022-11-28T09:07:53.440Z,7.34
2022-11-28T09:08:53.404Z,7.31
2022-11-28T09:09:53.345Z,7.35
2022-11-28T09:10:53.336Z,7.40
2022-11-28T09:11:53.356Z,7.40
2022-11-28T09:12:53.317Z,7.39
2022-11-28T09:13:53.325Z,7.42
2022-11-28T09:14:53.304Z,7.42
2022-11-28T09:15:53.876Z,7.40
2022-11-28T09:16:53.339Z,7.39
2022-11-28T09:17:53.256Z,7.42
2022-11-28T09:18:53.275Z,7.45
2022-11-28T09:19:53.235Z,7.46
2022-11-28T09:20:53.226Z,7.45
2022-11-28T09:21:57.516Z,7.45
2022-11-28T09:22:53.205Z,7.48
2022-11-28T09:23:53.185Z,7.48
2022-11-28T09:24:53.204Z,7.46
2022-11-28T09:25:53.167Z,7.46
2022-11-28T09:26:53.156Z,7.46
2022-11-28T09:27:53.264Z,7.45
2022-11-28T09:28:53.136Z,7.49
2022-11-28T09:29:53.135Z,7.48
2022-11-28T09:30:53.190Z,7.52
2022-11-28T09:31:53.101Z,7.48
2022-11-28T09:32:53.087Z,7.46
2022-11-28T09:33:53.100Z,7.48
2022-11-28T09:34:53.058Z,7.49
2022-11-28T09:35:53.063Z,7.43
2022-11-28T09:36:53.046Z,7.43
2022-11-28T09:37:53.056Z,7.45
2022-11-28T09:38:53.040Z,7.45
2022-11-28T09:40:12.228Z,7.46
2022-11-28T09:40:54.017Z,7.49
2022-11-28T09:41:52.987Z,7.49
2022-11-28T09:42:52.968Z,7.49
2022-11-28T09:43:55.089Z,7.50
2022-11-28T09:44:52.957Z,7.50
2022-11-28T09:45:52.979Z,7.53
2022-11-28T09:46:52.947Z,7.57
2022-11-28T09:47:52.945Z,7.58
2022-11-28T09:48:52.933Z,7.61
2022-11-28T09:49:52.915Z,7.60
2022-11-28T09:50:52.892Z,7.57
2022-11-28T09:51:56.769Z,7.57
2022-11-28T09:52:52.880Z,7.58
2022-11-28T09:53:52.996Z,7.58
2022-11-28T09:54:53.139Z,7.61
2022-11-28T09:55:53.333Z,7.58
2022-11-28T09:56:52.817Z,7.57
2022-11-28T09:57:52.809Z,7.60
2022-11-28T09:58:52.810Z,7.58
2022-11-28T09:59:52.799Z,7.58
2022-11-28T10:00:55.493Z,7.60
2022-11-28T10:01:52.762Z,7.61
2022-11-28T10:02:52.792Z,7.58
2022-11-28T10:03:52.787Z,7.60
2022-11-28T10:04:52.801Z,7.60
2022-11-28T10:05:52.720Z,7.58
2022-11-28T10:06:52.707Z,7.60
2022-11-28T10:07:55.164Z,7.58
2022-11-28T10:08:52.919Z,7.60
2022-11-28T10:09:52.659Z,7.60
2022-11-28T10:10:52.661Z,7.61
2022-11-28T10:11:52.640Z,7.61
2022-11-28T10:12:52.629Z,7.61
2022-11-28T10:14:07.659Z,7.61
2022-11-28T10:14:53.619Z,7.60
2022-11-28T10:15:52.635Z,7.57
2022-11-28T10:16:52.633Z,7.60
2022-11-28T10:17:52.600Z,7.64
2022-11-28T10:18:52.632Z,7.61
2022-11-28T10:19:54.810Z,7.60
2022-11-28T10:20:52.531Z,7.61
2022-11-28T10:21:56.422Z,7.57
2022-11-28T10:22:53.523Z,7.58
2022-11-28T10:23:52.501Z,7.57
2022-11-28T10:24:52.803Z,7.53
2022-11-28T10:25:52.481Z,7.50
2022-11-28T10:26:52.461Z,7.53
2022-11-28T10:27:52.463Z,7.53
2022-11-28T10:28:52.471Z,7.55
2022-11-28T10:29:52.431Z,7.55
2022-11-28T10:30:52.479Z,7.53
2022-11-28T10:31:52.443Z,7.55
2022-11-28T10:32:52.400Z,7.55
2022-11-28T10:33:52.400Z,7.57
2022-11-28T10:34:52.381Z,7.55
2022-11-28T10:35:52.381Z,7.49
2022-11-28T10:36:52.351Z,7.48
2022-11-28T10:37:52.344Z,7.43
2022-11-28T10:38:52.343Z,7.42
2022-11-28T10:39:52.320Z,7.43
2022-11-28T10:40:52.310Z,7.42
2022-11-28T10:41:52.312Z,7.42
2022-11-28T10:42:52.283Z,7.42
2022-11-28T10:43:52.293Z,7.40
2022-11-28T10:44:52.281Z,7.42
2022-11-28T10:45:52.268Z,7.40
2022-11-28T10:46:52.243Z,7.42
2022-11-28T10:47:52.242Z,7.43
2022-11-28T10:48:52.286Z,7.43
2022-11-28T10:49:52.212Z,7.46
2022-11-28T10:50:52.214Z,7.45
2022-11-28T10:51:52.190Z,7.43
2022-11-28T10:52:52.191Z,7.46
2022-11-28T10:53:52.181Z,7.48
2022-11-28T10:54:52.211Z,7.48
2022-11-28T10:55:52.144Z,7.46
2022-11-28T10:56:52.133Z,7.46
2022-11-28T10:57:52.123Z,7.49
2022-11-28T10:58:52.146Z,7.50
2022-11-28T10:59:52.104Z,7.50
2022-11-28T11:00:52.104Z,7.50
2022-11-28T11:01:52.228Z,7.50
2022-11-28T11:02:52.072Z,7.46
2022-11-28T11:03:52.097Z,7.48
2022-11-28T11:04:52.098Z,7.50
2022-11-28T11:05:52.023Z,7.53
2022-11-28T11:07:07.455Z,7.55
2022-11-28T11:07:53.066Z,7.60
2022-11-28T11:08:52.015Z,7.61
2022-11-28T11:09:51.981Z,7.64
2022-11-28T11:10:51.974Z,7.68
2022-11-28T11:11:51.965Z,7.64
2022-11-28T11:12:51.976Z,7.64
2022-11-28T11:13:51.966Z,7.67
2022-11-28T11:14:51.935Z,7.68
2022-11-28T11:15:51.960Z,7.61
2022-11-28T11:16:51.923Z,7.61
2022-11-28T11:17:51.925Z,7.57
2022-11-28T11:18:51.907Z,7.58
2022-11-28T11:19:51.875Z,7.58
2022-11-28T11:20:51.870Z,7.53
2022-11-28T11:21:51.856Z,7.53
2022-11-28T11:22:51.825Z,7.57
2022-11-28T11:23:51.856Z,7.60
2022-11-28T11:24:51.815Z,7.64
2022-11-28T11:25:51.807Z,7.67
2022-11-28T11:26:51.829Z,7.68
2022-11-28T11:27:51.807Z,7.67
2022-11-28T11:28:51.774Z,7.64
2022-11-28T11:29:52.007Z,7.69
2022-11-28T11:30:51.784Z,7.71
2022-11-28T11:31:51.776Z,7.68
2022-11-28T11:32:51.890Z,7.64
2022-11-28T11:33:51.736Z,7.63
2022-11-28T11:34:51.696Z,7.64
2022-11-28T11:35:51.695Z,7.67
2022-11-28T11:36:51.704Z,7.71
2022-11-28T11:37:51.666Z,7.72
2022-11-28T11:38:51.684Z,7.74
2022-11-28T11:39:51.672Z,7.74
2022-11-28T11:40:51.630Z,7.74
2022-11-28T11:41:51.619Z,7.74
2022-11-28T11:42:51.605Z,7.74
2022-11-28T11:43:51.668Z,7.75
2022-11-28T11:44:51.597Z,7.74
2022-11-28T11:45:52.704Z,7.71
2022-11-28T11:46:51.687Z,7.72
2022-11-28T11:47:51.565Z,7.72
2022-11-28T11:48:51.560Z,7.72
2022-11-28T11:49:51.581Z,7.71
2022-11-28T11:50:51.536Z,7.69
2022-11-28T11:51:51.509Z,7.71
2022-11-28T11:52:51.498Z,7.74
2022-11-28T11:53:51.519Z,7.77
2022-11-28T11:54:51.506Z,7.79
2022-11-28T11:55:51.465Z,7.80
2022-11-28T11:57:05.784Z,7.82
2022-11-28T11:57:52.439Z,7.85
2022-11-28T11:58:51.473Z,7.83
2022-11-28T11:59:51.437Z,7.85
2022-11-28T12:00:51.409Z,7.89
2022-11-28T12:01:51.394Z,7.90
2022-11-28T12:02:51.504Z,7.87
2022-11-28T12:03:51.417Z,7.89
2022-11-28T12:04:55.376Z,7.89
2022-11-28T12:06:14.233Z,7.86
2022-11-28T12:06:52.339Z,7.87
2022-11-28T12:07:51.407Z,7.86
2022-11-28T12:08:51.380Z,7.85
2022-11-28T12:09:53.465Z,7.85
2022-11-28T12:10:51.301Z,7.83
2022-11-28T12:11:51.288Z,7.80
2022-11-28T12:12:51.293Z,7.77
2022-11-28T12:13:51.320Z,7.79
2022-11-28T12:14:51.253Z,7.80
2022-11-28T12:15:51.325Z,7.80
2022-11-28T12:16:51.259Z,7.83
2022-11-28T12:17:55.773Z,7.85
2022-11-28T12:18:52.220Z,7.80
2022-11-28T12:19:51.191Z,7.79
2022-11-28T12:20:51.170Z,7.77
2022-11-28T12:21:51.195Z,7.77
2022-11-28T12:22:51.152Z,7.79
2022-11-28T12:23:51.170Z,7.80
2022-11-28T12:24:51.513Z,7.82
2022-11-28T12:25:51.133Z,7.83
2022-11-28T12:26:53.901Z,7.85
2022-11-28T12:27:51.141Z,7.85
2022-11-28T12:28:51.143Z,7.86
2022-11-28T12:29:51.140Z,7.87
2022-11-28T12:30:51.133Z,7.92
2022-11-28T12:31:51.079Z,7.92
2022-11-28T12:32:51.042Z,7.92
2022-11-28T12:33:51.043Z,7.92
2022-11-28T12:34:51.072Z,7.97
2022-11-28T12:35:51.043Z,7.97
2022-11-28T12:36:51.005Z,7.97
2022-11-28T12:38:51.991Z,7.97
2022-11-28T12:39:50.983Z,7.98
2022-11-28T12:40:50.979Z,8.00
2022-11-28T12:41:50.956Z,8.01
2022-11-28T12:42:50.934Z,8.04
2022-11-28T12:43:50.943Z,8.02
2022-11-28T12:44:50.933Z,8.02
2022-11-28T12:45:50.902Z,8.00
2022-11-28T12:46:50.930Z,8.00
2022-11-28T12:47:50.885Z,7.95
2022-11-28T12:48:53.399Z,7.95
2022-11-28T12:49:50.892Z,7.95
2022-11-28T12:50:50.837Z,8.00
2022-11-28T12:51:50.853Z,8.02
2022-11-28T12:52:50.862Z,8.05
2022-11-28T12:53:50.822Z,8.08
2022-11-28T12:54:51.946Z,8.08
2022-11-28T12:55:50.801Z,8.08
2022-11-28T12:56:50.826Z,8.10
2022-11-28T12:57:51.655Z,8.12
2022-11-28T12:58:50.825Z,8.16
2022-11-28T12:59:50.875Z,8.15
2022-11-28T13:00:50.736Z,8.16
2022-11-28T13:01:50.817Z,8.16
2022-11-28T13:02:50.775Z,8.16
2022-11-28T13:03:50.699Z,8.18
2022-11-28T13:04:50.862Z,8.18
2022-11-28T13:05:50.678Z,8.18
2022-11-28T13:06:50.665Z,8.16
2022-11-28T13:07:50.717Z,8.18
2022-11-28T13:08:50.663Z,8.20
2022-11-28T13:09:50.633Z,8.22
2022-11-28T13:10:50.666Z,8.22
2022-11-28T13:11:51.204Z,8.22
2022-11-28T13:12:50.596Z,8.25
2022-11-28T13:13:50.626Z,8.26
2022-11-28T13:14:50.581Z,8.29
2022-11-28T13:15:51.340Z,8.30
2022-11-28T13:16:50.672Z,8.33
2022-11-28T13:17:50.546Z,8.33
2022-11-28T13:18:50.546Z,8.33
2022-11-28T13:19:50.601Z,8.34